createdAt,value
2023-04-26T00:02:21.988Z,9.10
2023-04-26T00:04:56.656Z,9.10
2023-04-26T00:07:26.788Z,9.20
2023-04-26T00:09:53.827Z,9.10
2023-04-26T00:12:21.341Z,9.10
2023-04-26T00:14:48.272Z,9.10
2023-04-26T00:17:15.527Z,9.10
2023-04-26T00:19:42.607Z,9.10
2023-04-26T00:22:09.683Z,9.10
2023-04-26T00:24:36.608Z,9.10
2023-04-26T00:27:09.007Z,9.10
2023-04-26T00:29:37.226Z,9.10
2023-04-26T00:32:04.551Z,9.10
2023-04-26T00:34:36.145Z,9.10
2023-04-26T00:37:03.930Z,9.10
2023-04-26T00:39:31.824Z,9.10
2023-04-26T00:41:59.007Z,9.10
2023-04-26T00:44:25.956Z,9.10
2023-04-26T00:46:54.026Z,9.10
2023-04-26T00:49:24.186Z,9.00
2023-04-26T00:51:52.877Z,9.00
2023-04-26T00:54:21.430Z,9.00
2023-04-26T00:56:52.000Z,8.90
2023-04-26T00:59:20.825Z,8.90
2023-04-26T01:01:49.135Z,8.90
2023-04-26T01:04:16.980Z,8.80
2023-04-26T01:06:44.646Z,8.90
2023-04-26T01:09:14.851Z,8.90
2023-04-26T01:11:43.603Z,8.90
2023-04-26T01:14:11.413Z,8.90
2023-04-26T01:16:40.882Z,8.80
2023-04-26T01:19:15.409Z,8.80
2023-04-26T01:21:43.027Z,8.80
2023-04-26T01:24:11.660Z,8.80
2023-04-26T01:26:45.350Z,8.80
2023-04-26T01:29:21.898Z,8.80
2023-04-26T01:31:49.261Z,8.80
2023-04-26T01:34:16.534Z,8.70
2023-04-26T01:36:46.207Z,8.70
2023-04-26T01:39:13.593Z,8.70
2023-04-26T01:41:40.597Z,8.70
2023-04-26T01:44:07.823Z,8.70
2023-04-26T01:46:34.893Z,8.70
2023-04-26T01:49:01.907Z,8.70
2023-04-26T01:51:30.261Z,8.70
2023-04-26T01:53:57.296Z,8.60
2023-04-26T01:56:25.486Z,8.60
2023-04-26T01:58:55.579Z,8.60
2023-04-26T02:01:23.673Z,8.60
2023-04-26T02:03:51.305Z,8.50
2023-04-26T02:06:20.052Z,8.50
2023-04-26T02:08:47.063Z,8.50
2023-04-26T02:11:14.002Z,8.50
2023-04-26T02:13:41.284Z,8.40
2023-04-26T02:16:08.296Z,8.40
2023-04-26T02:18:35.475Z,8.40
2023-04-26T02:21:02.438Z,8.40
2023-04-26T02:23:31.497Z,8.40
2023-04-26T02:25:58.435Z,8.40
2023-04-26T02:28:25.409Z,8.40
2023-04-26T02:30:56.791Z,8.30
2023-04-26T02:33:24.371Z,8.40
2023-04-26T02:35:51.599Z,8.30
2023-04-26T02:38:19.423Z,8.40
2023-04-26T02:40:46.450Z,8.30
2023-04-26T02:43:14.157Z,8.30
2023-04-26T02:45:42.993Z,8.30
2023-04-26T02:48:11.790Z,8.30
2023-04-26T02:50:39.344Z,8.30
2023-04-26T02:53:06.353Z,8.30
2023-04-26T02:55:33.711Z,8.30
2023-04-26T02:58:00.830Z,8.30
2023-04-26T03:00:28.581Z,8.30
2023-04-26T03:02:56.888Z,8.30
2023-04-26T03:05:24.538Z,8.30
2023-04-26T03:07:52.586Z,8.20
2023-04-26T03:10:19.516Z,8.20
2023-04-26T03:12:46.423Z,8.20
2023-04-26T03:15:15.889Z,8.20
2023-04-26T03:17:44.315Z,8.20
2023-04-26T03:20:12.788Z,8.20
2023-04-26T03:22:39.864Z,8.20
2023-04-26T03:25:07.994Z,8.20
2023-04-26T03:27:35.660Z,8.20
2023-04-26T03:30:04.190Z,8.20
2023-04-26T03:32:31.857Z,8.10
2023-04-26T03:34:59.341Z,8.10
2023-04-26T03:37:26.449Z,8.10
2023-04-26T03:39:59.757Z,8.20
2023-04-26T03:42:26.820Z,8.10
2023-04-26T03:44:54.398Z,8.10
2023-04-26T03:47:22.736Z,8.10
2023-04-26T03:49:50.198Z,8.10
2023-04-26T03:52:17.242Z,8.00
2023-04-26T03:54:44.234Z,8.10
2023-04-26T03:57:12.255Z,8.00
2023-04-26T03:59:40.227Z,8.00
2023-04-26T04:02:07.523Z,8.00
2023-04-26T04:04:34.808Z,8.00
2023-04-26T04:07:02.138Z,8.00
2023-04-26T04:09:29.351Z,8.00
2023-04-26T04:11:56.258Z,7.90
2023-04-26T04:14:23.556Z,7.90
2023-04-26T04:16:50.886Z,7.90
2023-04-26T04:19:18.233Z,7.90
2023-04-26T04:21:47.051Z,7.80
2023-04-26T04:24:13.984Z,7.80
2023-04-26T04:26:41.216Z,7.90
2023-04-26T04:29:09.550Z,7.90
2023-04-26T04:31:40.161Z,7.90
2023-04-26T04:34:08.826Z,8.00
2023-04-26T04:36:36.321Z,8.00
2023-04-26T04:39:04.250Z,8.10
2023-04-26T04:41:32.352Z,8.20
2023-04-26T04:44:00.475Z,8.20
2023-04-26T04:46:27.921Z,8.20
2023-04-26T04:48:55.113Z,8.30
2023-04-26T04:51:22.230Z,8.30
2023-04-26T04:53:49.202Z,8.30
2023-04-26T04:56:18.418Z,8.40
2023-04-26T04:58:46.323Z,8.40
2023-04-26T05:01:13.817Z,8.40
2023-04-26T05:03:51.335Z,8.70
2023-04-26T05:06:19.054Z,9.70
2023-04-26T05:08:45.976Z,10.60
2023-04-26T05:11:13.025Z,11.40
2023-04-26T05:13:40.158Z,11.70
2023-04-26T05:16:07.504Z,12.30
2023-04-26T05:18:34.642Z,13.00
2023-04-26T05:21:02.242Z,13.80
2023-04-26T05:23:30.110Z,14.60
2023-04-26T05:25:57.540Z,15.30
2023-04-26T05:28:53.920Z,16.00
2023-04-26T05:31:39.173Z,16.60
2023-04-26T05:34:25.002Z,17.10
2023-04-26T05:36:56.356Z,17.50
2023-04-26T05:39:23.363Z,18.00
2023-04-26T05:41:50.274Z,18.40
2023-04-26T05:44:17.473Z,18.90
2023-04-26T05:46:46.853Z,19.30
2023-04-26T05:49:14.124Z,19.80
2023-04-26T05:51:41.152Z,20.10
2023-04-26T05:54:08.184Z,20.40
2023-04-26T05:56:35.336Z,20.70
2023-04-26T05:59:02.816Z,21.00
2023-04-26T06:01:31.100Z,21.30
2023-04-26T06:04:00.827Z,21.60
2023-04-26T06:06:33.549Z,21.90
2023-04-26T06:09:00.630Z,22.30
2023-04-26T06:11:27.997Z,22.60
2023-04-26T06:13:55.390Z,23.00
2023-04-26T06:16:22.803Z,23.30
2023-04-26T06:18:50.711Z,23.70
2023-04-26T06:21:17.556Z,24.20
2023-04-26T06:23:44.410Z,24.80
2023-04-26T06:26:11.310Z,25.20
2023-04-26T06:28:39.959Z,25.60
2023-04-26T06:31:09.194Z,26.00
2023-04-26T06:33:36.921Z,26.30
2023-04-26T06:36:03.901Z,26.70
2023-04-26T06:38:30.833Z,26.90
2023-04-26T06:40:58.463Z,27.10
2023-04-26T06:43:25.394Z,27.50
2023-04-26T06:45:58.954Z,27.80
2023-04-26T06:48:25.921Z,28.20
2023-04-26T06:50:52.708Z,28.70
2023-04-26T06:53:20.722Z,28.90
2023-04-26T06:55:49.249Z,29.20
2023-04-26T06:58:16.030Z,29.50
2023-04-26T07:00:42.857Z,29.70
2023-04-26T07:03:09.972Z,30.00
2023-04-26T07:05:36.903Z,30.10
2023-04-26T07:08:03.725Z,29.90
2023-04-26T07:10:30.618Z,29.90
2023-04-26T07:12:57.718Z,29.90
2023-04-26T07:15:24.667Z,30.10
2023-04-26T07:17:51.867Z,30.50
2023-04-26T07:20:21.094Z,30.80
2023-04-26T07:22:48.004Z,30.70
2023-04-26T07:25:14.849Z,30.70
2023-04-26T07:27:41.648Z,30.80
2023-04-26T07:30:09.125Z,30.50
2023-04-26T07:32:36.618Z,30.60
2023-04-26T07:35:07.553Z,30.60
2023-04-26T07:37:34.336Z,30.80
2023-04-26T07:40:01.207Z,30.70
2023-04-26T07:42:28.060Z,30.60
2023-04-26T07:44:54.851Z,30.40
2023-04-26T07:47:21.882Z,30.40
2023-04-26T07:49:52.717Z,30.20
2023-04-26T07:52:19.546Z,30.50
2023-04-26T07:54:47.027Z,30.30
2023-04-26T07:57:13.856Z,30.60
2023-04-26T07:59:40.636Z,31.10
2023-04-26T08:02:07.507Z,31.50
2023-04-26T08:04:34.775Z,32.20
2023-04-26T08:07:02.208Z,32.70
2023-04-26T08:09:29.469Z,33.00
2023-04-26T08:11:56.647Z,33.30
2023-04-26T08:14:23.623Z,33.50
2023-04-26T08:16:51.707Z,33.90
2023-04-26T08:19:18.572Z,34.30
2023-04-26T08:21:45.422Z,34.40
2023-04-26T08:24:12.221Z,34.60
2023-04-26T08:26:39.086Z,34.90
2023-04-26T08:29:06.493Z,35.20
2023-04-26T08:31:33.480Z,35.40
2023-04-26T08:34:00.462Z,35.30
2023-04-26T08:36:27.738Z,35.10
2023-04-26T08:38:56.551Z,34.80
2023-04-26T08:41:26.316Z,34.80
2023-04-26T08:43:55.580Z,34.90
2023-04-26T08:46:22.416Z,35.20
2023-04-26T08:48:53.768Z,35.20
2023-04-26T08:51:21.656Z,34.70
2023-04-26T08:53:49.765Z,33.60
2023-04-26T08:56:16.819Z,33.50
2023-04-26T08:58:43.608Z,33.80
2023-04-26T09:01:10.872Z,34.00
2023-04-26T09:03:37.898Z,33.80
2023-04-26T09:06:06.140Z,33.30
2023-04-26T09:08:35.298Z,32.80
2023-04-26T09:11:03.460Z,32.20
2023-04-26T09:13:30.679Z,31.90
2023-04-26T09:15:57.858Z,31.50
2023-04-26T09:18:24.973Z,31.30
2023-04-26T09:21:02.237Z,31.50
2023-04-26T09:23:29.151Z,31.60
2023-04-26T09:25:55.943Z,32.10
2023-04-26T09:28:23.618Z,32.20
2023-04-26T09:30:50.601Z,31.80
2023-04-26T09:33:17.556Z,31.70
2023-04-26T09:35:44.771Z,31.70
2023-04-26T09:38:13.866Z,31.70
2023-04-26T09:40:41.243Z,31.70
2023-04-26T09:43:09.284Z,31.80
2023-04-26T09:45:46.500Z,32.40
2023-04-26T09:48:14.682Z,32.70
2023-04-26T09:50:41.508Z,32.20
2023-04-26T09:53:08.844Z,32.00
2023-04-26T09:55:36.155Z,31.30
2023-04-26T09:58:09.757Z,31.20
2023-04-26T10:00:38.259Z,31.20
2023-04-26T10:03:05.856Z,31.00
2023-04-26T10:05:34.148Z,30.50
2023-04-26T10:08:01.653Z,30.40
2023-04-26T10:10:28.524Z,30.60
2023-04-26T10:12:55.299Z,30.90
2023-04-26T10:15:22.677Z,30.70
2023-04-26T10:17:51.952Z,30.80
2023-04-26T10:20:20.729Z,30.80
2023-04-26T10:22:52.023Z,30.90
2023-04-26T10:25:18.846Z,31.00
2023-04-26T10:27:45.793Z,31.10
2023-04-26T10:30:16.508Z,31.30
2023-04-26T10:32:53.294Z,31.40
2023-04-26T10:35:21.770Z,31.70
2023-04-26T10:37:57.733Z,31.90
2023-04-26T10:40:25.561Z,32.20
2023-04-26T10:43:13.755Z,32.40
2023-04-26T10:45:41.337Z,32.50
2023-04-26T10:48:18.986Z,32.40
2023-04-26T10:51:09.241Z,32.00
2023-04-26T10:53:47.997Z,31.90
2023-04-26T10:56:23.993Z,31.90
2023-04-26T11:01:41.950Z,31.60
2023-04-26T11:04:12.259Z,31.20
2023-04-26T11:06:48.723Z,31.10
2023-04-26T11:09:34.881Z,31.10
2023-04-26T11:12:02.611Z,31.10
2023-04-26T11:14:29.392Z,31.00
2023-04-26T11:16:56.337Z,31.20
2023-04-26T11:19:23.154Z,31.50
2023-04-26T11:21:50.660Z,31.90
2023-04-26T11:24:17.481Z,32.00
2023-04-26T11:26:51.110Z,32.00
2023-04-26T11:29:21.314Z,31.90
2023-04-26T11:31:52.790Z,31.80
2023-04-26T11:34:35.549Z,31.80
2023-04-26T11:37:03.019Z,31.80
2023-04-26T11:39:31.593Z,31.70
2023-04-26T11:42:05.835Z,31.50
2023-04-26T11:44:33.162Z,31.40
2023-04-26T11:47:06.617Z,31.30
2023-04-26T11:49:34.396Z,31.50
2023-04-26T11:52:01.693Z,31.80
2023-04-26T11:54:34.678Z,31.90
2023-04-26T11:57:02.851Z,31.90
2023-04-26T11:59:30.893Z,31.90
2023-04-26T12:01:58.113Z,32.20
2023-04-26T12:04:30.368Z,32.60
2023-04-26T12:06:58.524Z,32.60
2023-04-26T12:09:29.887Z,32.00
2023-04-26T12:11:59.633Z,31.80
2023-04-26T12:14:36.272Z,31.70
2023-04-26T12:17:04.549Z,31.60
2023-04-26T12:19:35.159Z,31.60
2023-04-26T12:22:02.404Z,31.80
2023-04-26T12:24:30.536Z,31.80
2023-04-26T12:26:58.676Z,31.50
2023-04-26T12:29:28.872Z,31.40
2023-04-26T12:31:55.835Z,31.20
2023-04-26T12:34:22.880Z,31.10
2023-04-26T12:36:49.717Z,31.40
2023-04-26T12:39:16.957Z,31.90
2023-04-26T12:41:44.098Z,32.10
2023-04-26T12:44:11.407Z,31.60
2023-04-26T12:46:38.529Z,31.20
2023-04-26T12:49:05.486Z,31.00
2023-04-26T12:51:33.905Z,30.90
2023-04-26T12:54:00.801Z,30.80
2023-04-26T12:56:28.997Z,30.40
2023-04-26T12:58:55.922Z,30.30
2023-04-26T13:01:22.927Z,30.10
2023-04-26T13:03:49.939Z,29.30
2023-04-26T13:06:17.314Z,28.00
2023-04-26T13:08:44.144Z,26.70
2023-04-26T13:11:11.008Z,25.80
2023-04-26T13:13:43.740Z,25.00
2023-04-26T13:16:12.606Z,24.30
2023-04-26T13:18:40.103Z,24.00
2023-04-26T13:21:07.146Z,23.70
2023-04-26T13:23:33.969Z,23.30
2023-04-26T13:26:00.757Z,23.00
2023-04-26T13:28:27.551Z,23.20
2023-04-26T13:30:55.836Z,23.50
2023-04-26T13:33:22.916Z,23.80
2023-04-26T13:35:49.838Z,23.80
2023-04-26T13:38:17.326Z,23.40
2023-04-26T13:40:44.718Z,23.00
2023-04-26T13:43:11.650Z,22.50
2023-04-26T13:45:38.887Z,22.10
2023-04-26T13:48:06.110Z,21.80
2023-04-26T13:50:32.973Z,21.80
2023-04-26T13:53:00.041Z,21.80
2023-04-26T13:55:26.883Z,21.90
2023-04-26T13:57:54.514Z,21.90
2023-04-26T14:00:21.682Z,21.90
2023-04-26T14:02:49.016Z,21.80
2023-04-26T14:05:16.796Z,21.90
2023-04-26T14:07:43.795Z,22.00
2023-04-26T14:10:10.789Z,22.10
2023-04-26T14:12:37.597Z,21.90
2023-04-26T14:15:05.997Z,21.80
2023-04-26T14:17:33.111Z,21.70
2023-04-26T14:19:59.975Z,21.50
2023-04-26T14:22:27.198Z,21.40
2023-04-26T14:24:54.970Z,21.40
2023-04-26T14:27:21.795Z,21.50
2023-04-26T14:29:48.686Z,21.60
2023-04-26T14:32:15.629Z,21.60
2023-04-26T14:34:42.980Z,21.40
2023-04-26T14:37:10.682Z,21.30
2023-04-26T14:39:37.709Z,21.40
2023-04-26T14:42:04.863Z,21.50
2023-04-26T14:44:31.765Z,21.60
2023-04-26T14:46:58.669Z,21.70
2023-04-26T14:49:25.751Z,21.70
2023-04-26T14:51:53.667Z,21.70
2023-04-26T14:54:21.208Z,21.80
2023-04-26T14:56:48.822Z,22.00
2023-04-26T14:59:16.276Z,22.30
2023-04-26T15:01:43.185Z,22.50
2023-04-26T15:04:10.396Z,22.50
2023-04-26T15:06:37.556Z,22.30
2023-04-26T15:09:04.678Z,22.10
2023-04-26T15:11:31.537Z,22.00
2023-04-26T15:13:58.351Z,21.90
2023-04-26T15:16:25.342Z,21.90
2023-04-26T15:18:52.220Z,22.00
2023-04-26T15:21:19.507Z,21.90
2023-04-26T15:23:46.622Z,21.90
2023-04-26T15:26:13.781Z,21.80
2023-04-26T15:28:40.728Z,21.60
2023-04-26T15:31:08.838Z,21.50
2023-04-26T15:33:36.438Z,21.40
2023-04-26T15:36:03.392Z,21.30
2023-04-26T15:38:30.293Z,21.30
2023-04-26T15:40:57.146Z,21.20
2023-04-26T15:43:23.996Z,21.30
2023-04-26T15:45:50.980Z,21.30
2023-04-26T15:48:17.811Z,21.20
2023-04-26T15:50:44.738Z,21.00
2023-04-26T15:53:11.676Z,21.00
2023-04-26T15:55:38.564Z,20.90
2023-04-26T15:58:05.896Z,20.80
2023-04-26T16:00:33.988Z,20.80
2023-04-26T16:03:02.209Z,20.70
2023-04-26T16:05:29.189Z,20.70
2023-04-26T16:07:56.363Z,20.60
2023-04-26T16:10:23.904Z,20.50
2023-04-26T16:12:50.939Z,20.50
2023-04-26T16:15:17.981Z,20.50
2023-04-26T16:17:44.879Z,20.50
2023-04-26T16:20:11.888Z,20.40
2023-04-26T16:22:38.750Z,20.40
2023-04-26T16:25:07.109Z,20.40
2023-04-26T16:27:34.128Z,20.40
2023-04-26T16:30:01.106Z,20.20
2023-04-26T16:32:30.558Z,20.00
2023-04-26T16:34:57.461Z,20.00
2023-04-26T16:37:24.330Z,20.00
2023-04-26T16:39:54.471Z,20.00
2023-04-26T16:42:21.488Z,19.90
2023-04-26T16:44:48.356Z,19.90
2023-04-26T16:47:15.449Z,19.80
2023-04-26T16:49:42.288Z,19.70
2023-04-26T16:52:09.182Z,19.60
2023-04-26T16:54:36.106Z,19.50
2023-04-26T16:57:03.959Z,19.40
2023-04-26T16:59:30.800Z,19.30
2023-04-26T17:01:57.636Z,19.20
2023-04-26T17:04:24.735Z,19.10
2023-04-26T17:06:51.694Z,18.90
2023-04-26T17:09:18.709Z,18.90
2023-04-26T17:11:46.443Z,18.80
2023-04-26T17:14:13.474Z,18.70
2023-04-26T17:16:40.576Z,18.60
2023-04-26T17:19:07.496Z,18.60
2023-04-26T17:21:34.425Z,18.50
2023-04-26T17:24:01.750Z,18.50
2023-04-26T17:26:28.915Z,18.40
2023-04-26T17:28:56.398Z,18.40
2023-04-26T17:31:23.351Z,18.30
2023-04-26T17:33:50.455Z,18.30
2023-04-26T17:36:17.851Z,18.20
2023-04-26T17:38:46.129Z,18.20
2023-04-26T17:41:13.567Z,18.10
2023-04-26T17:43:40.557Z,18.00
2023-04-26T17:46:07.529Z,17.90
2023-04-26T17:48:34.418Z,17.80
2023-04-26T17:51:01.356Z,17.70
2023-04-26T17:53:28.191Z,17.50
2023-04-26T17:55:55.320Z,17.40
2023-04-26T17:58:23.020Z,17.20
2023-04-26T18:00:50.394Z,17.10
2023-04-26T18:03:17.385Z,16.90
2023-04-26T18:05:44.474Z,16.90
2023-04-26T18:08:11.432Z,16.70
2023-04-26T18:10:38.252Z,16.60
2023-04-26T18:13:05.653Z,16.50
2023-04-26T18:15:32.575Z,16.40
2023-04-26T18:17:59.501Z,16.30
2023-04-26T18:20:27.086Z,16.30
2023-04-26T18:22:53.960Z,16.20
2023-04-26T18:25:20.939Z,16.20
2023-04-26T18:27:47.839Z,16.10
2023-04-26T18:30:14.746Z,16.00
2023-04-26T18:32:41.568Z,15.90
2023-04-26T18:35:09.161Z,15.80
2023-04-26T18:37:36.163Z,15.70
2023-04-26T18:40:04.850Z,15.60
2023-04-26T18:42:31.699Z,15.50
2023-04-26T18:44:59.497Z,15.40
2023-04-26T18:47:26.729Z,15.40
2023-04-26T18:49:53.566Z,15.30
2023-04-26T18:52:20.418Z,15.20
2023-04-26T18:54:47.290Z,15.20
2023-04-26T18:57:14.880Z,15.10
2023-04-26T18:59:42.094Z,15.10
2023-04-26T19:02:10.231Z,15.00
2023-04-26T19:04:37.325Z,15.00
2023-04-26T19:07:04.285Z,14.90
2023-04-26T19:09:42.799Z,14.90
2023-04-26T19:12:17.705Z,14.80
2023-04-26T19:14:44.531Z,14.80
2023-04-26T19:17:11.427Z,14.70
2023-04-26T19:19:38.324Z,14.70
2023-04-26T19:22:05.288Z,14.60
2023-04-26T19:24:32.100Z,14.60
2023-04-26T19:26:59.098Z,14.60
2023-04-26T19:29:25.913Z,14.60
2023-04-26T19:31:52.914Z,14.50
2023-04-26T19:34:19.905Z,14.40
2023-04-26T19:36:46.924Z,14.40
2023-04-26T19:39:16.068Z,14.20
2023-04-26T19:41:43.065Z,14.20
2023-04-26T19:44:10.002Z,14.10
2023-04-26T19:46:37.889Z,14.10
2023-04-26T19:49:04.862Z,14.00
2023-04-26T19:51:32.215Z,14.00
2023-04-26T19:53:59.235Z,13.90
2023-04-26T19:56:26.297Z,13.90
2023-04-26T19:58:53.261Z,13.80
2023-04-26T20:01:20.540Z,13.80
2023-04-26T20:03:47.841Z,13.70
2023-04-26T20:06:14.913Z,13.70
2023-04-26T20:08:41.864Z,13.70
2023-04-26T20:11:14.673Z,13.60
2023-04-26T20:13:42.768Z,13.60
2023-04-26T20:16:10.661Z,13.50
2023-04-26T20:18:37.871Z,13.50
2023-04-26T20:21:05.897Z,13.40
2023-04-26T20:23:32.974Z,13.40
2023-04-26T20:26:00.040Z,13.40
2023-04-26T20:28:27.144Z,13.40
2023-04-26T20:30:54.170Z,13.30
2023-04-26T20:33:21.387Z,13.30
2023-04-26T20:35:48.480Z,13.30
2023-04-26T20:38:15.551Z,13.30
2023-04-26T20:40:42.586Z,13.20
2023-04-26T20:43:09.635Z,13.20
2023-04-26T20:45:37.185Z,13.20
2023-04-26T20:48:04.429Z,13.10
2023-04-26T20:50:31.416Z,13.10
2023-04-26T20:52:58.384Z,13.00
2023-04-26T20:55:25.405Z,13.00
2023-04-26T20:57:52.564Z,13.00
2023-04-26T21:00:20.179Z,13.00
2023-04-26T21:02:47.350Z,12.90
2023-04-26T21:05:14.417Z,12.90
2023-04-26T21:07:41.400Z,12.90
2023-04-26T21:10:09.182Z,12.80
2023-04-26T21:12:36.232Z,12.80
2023-04-26T21:15:03.890Z,12.80
2023-04-26T21:17:30.902Z,12.70
2023-04-26T21:19:57.956Z,12.70
2023-04-26T21:22:24.900Z,12.70
2023-04-26T21:24:52.358Z,12.70
2023-04-26T21:27:19.312Z,12.60
2023-04-26T21:29:49.266Z,12.60
2023-04-26T21:32:16.995Z,12.60
2023-04-26T21:34:43.933Z,12.60
2023-04-26T21:37:10.870Z,12.60
2023-04-26T21:39:37.879Z,12.50
2023-04-26T21:42:04.839Z,12.50
2023-04-26T21:44:31.770Z,12.50
2023-04-26T21:46:58.717Z,12.50
2023-04-26T21:49:26.003Z,12.50
2023-04-26T21:51:52.998Z,12.40
2023-04-26T21:54:19.953Z,12.40
2023-04-26T21:56:46.911Z,12.40
2023-04-26T21:59:14.627Z,12.40
2023-04-26T22:01:41.671Z,12.40
2023-04-26T22:04:08.764Z,12.40
2023-04-26T22:06:35.973Z,12.40
2023-04-26T22:09:03.629Z,12.40
2023-04-26T22:11:30.576Z,12.40
2023-04-26T22:13:57.506Z,12.30
2023-04-26T22:16:24.519Z,12.30
2023-04-26T22:18:51.530Z,12.30
2023-04-26T22:21:18.467Z,12.30
2023-04-26T22:23:45.417Z,12.20
2023-04-26T22:26:12.341Z,12.20
2023-04-26T22:28:39.292Z,12.20
2023-04-26T22:31:06.406Z,12.20
2023-04-26T22:33:33.410Z,12.10
2023-04-26T22:36:00.341Z,12.10
2023-04-26T22:38:27.339Z,12.10
2023-04-26T22:40:54.429Z,12.00
2023-04-26T22:43:23.258Z,12.00
2023-04-26T22:45:50.565Z,12.00
2023-04-26T22:48:17.749Z,12.00
2023-04-26T22:50:44.691Z,12.00
2023-04-26T22:53:11.631Z,11.90
2023-04-26T22:55:38.616Z,11.90
2023-04-26T22:58:05.776Z,11.90
2023-04-26T23:00:32.731Z,11.90
2023-04-26T23:02:59.798Z,11.80
2023-04-26T23:05:26.847Z,11.80
2023-04-26T23:07:53.820Z,11.80
2023-04-26T23:10:21.127Z,11.80
2023-04-26T23:12:50.796Z,11.80
2023-04-26T23:15:17.915Z,11.80
2023-04-26T23:17:45.587Z,11.80
2023-04-26T23:20:12.885Z,11.70
2023-04-26T23:22:41.273Z,11.70
2023-04-26T23:25:09.436Z,11.70
2023-04-26T23:27:37.535Z,11.70
2023-04-26T23:30:05.081Z,11.70
2023-04-26T23:32:32.145Z,11.70
2023-04-26T23:34:59.153Z,11.60
2023-04-26T23:37:26.134Z,11.60
2023-04-26T23:39:53.038Z,11.60
2023-04-26T23:42:19.965Z,11.60
2023-04-26T23:44:46.902Z,11.60
2023-04-26T23:47:13.892Z,11.60
2023-04-26T23:49:41.079Z,11.50
2023-04-26T23:52:08.064Z,11.50
2023-04-26T23:54:34.992Z,11.50
2023-04-26T23:57:04.031Z,11.50
2023-04-26T23:59:31.101Z,11.50
